createdAt,value
2016-10-05T00:00:52.308Z,1023.86
2016-10-05T00:01:52.282Z,1023.83
2016-10-05T00:02:52.253Z,1023.83
2016-10-05T00:03:52.225Z,1023.85
2016-10-05T00:04:52.197Z,1023.84
2016-10-05T00:05:52.168Z,1023.88
2016-10-05T00:06:52.140Z,1023.87
2016-10-05T00:07:52.110Z,1023.88
2016-10-05T00:08:52.082Z,1023.89
2016-10-05T00:09:52.054Z,1023.89
2016-10-05T00:10:52.027Z,1023.89
2016-10-05T00:11:52.003Z,1023.88
2016-10-05T00:12:51.970Z,1023.87
2016-10-05T00:13:51.943Z,1023.83
2016-10-05T00:14:51.913Z,1023.88
2016-10-05T00:15:51.887Z,1023.82
2016-10-05T00:16:51.856Z,1023.84
2016-10-05T00:17:51.878Z,1023.86
2016-10-05T00:18:51.801Z,1023.83
2016-10-05T00:19:51.772Z,1023.89
2016-10-05T00:20:51.745Z,1023.83
2016-10-05T00:21:51.716Z,1023.89
2016-10-05T00:22:51.690Z,1023.97
2016-10-05T00:23:51.662Z,1023.89
2016-10-05T00:24:51.632Z,1023.92
2016-10-05T00:25:51.605Z,1023.96
2016-10-05T00:26:51.576Z,1023.94
2016-10-05T00:27:51.548Z,1023.96
2016-10-05T00:28:51.520Z,1023.95
2016-10-05T00:29:51.490Z,1023.96
2016-10-05T00:30:51.462Z,1023.9
2016-10-05T00:31:51.436Z,1023.89
2016-10-05T00:32:51.407Z,1023.89
2016-10-05T00:33:51.377Z,1023.88
2016-10-05T00:34:51.351Z,1023.87
2016-10-05T00:35:51.322Z,1023.88
2016-10-05T00:36:51.292Z,1023.89
2016-10-05T00:37:51.265Z,1023.85
2016-10-05T00:38:51.236Z,1023.82
2016-10-05T00:39:51.208Z,1023.84
2016-10-05T00:40:51.180Z,1023.84
2016-10-05T00:41:51.154Z,1023.76
2016-10-05T00:42:51.122Z,1023.76
2016-10-05T00:43:51.093Z,1023.79
2016-10-05T00:44:51.067Z,1023.73
2016-10-05T00:45:51.038Z,1023.76
2016-10-05T00:46:51.009Z,1023.76
2016-10-05T00:47:50.982Z,1023.76
2016-10-05T00:48:50.952Z,1023.72
2016-10-05T00:49:50.925Z,1023.78
2016-10-05T00:50:50.895Z,1023.79
2016-10-05T00:51:50.866Z,1023.76
2016-10-05T00:52:50.839Z,1023.76
2016-10-05T00:53:50.810Z,1023.76
2016-10-05T00:54:50.780Z,1023.75
2016-10-05T00:55:50.752Z,1023.76
2016-10-05T00:56:50.726Z,1023.69
2016-10-05T00:57:50.695Z,1023.72
2016-10-05T00:58:50.668Z,1023.69
2016-10-05T00:59:50.642Z,1023.63
2016-10-05T01:00:50.613Z,1023.6
2016-10-05T01:01:50.583Z,1023.58
2016-10-05T01:02:50.556Z,1023.55
2016-10-05T01:03:50.527Z,1023.55
2016-10-05T01:04:50.500Z,1023.53
2016-10-05T01:05:50.469Z,1023.52
2016-10-05T01:06:50.439Z,1023.53
2016-10-05T01:07:50.432Z,1023.54
2016-10-05T01:08:50.384Z,1023.51
2016-10-05T01:09:50.355Z,1023.52
2016-10-05T01:10:50.325Z,1023.53
2016-10-05T01:11:50.297Z,1023.53
2016-10-05T01:12:50.269Z,1023.54
2016-10-05T01:13:50.242Z,1023.55
2016-10-05T01:14:51.214Z,1023.55
2016-10-05T01:15:50.185Z,1023.51
2016-10-05T01:16:50.156Z,1023.5
2016-10-05T01:17:50.128Z,1023.53
2016-10-05T01:18:50.105Z,1023.45
2016-10-05T01:19:50.071Z,1023.47
2016-10-05T01:20:50.041Z,1023.45
2016-10-05T01:21:50.013Z,1023.44
2016-10-05T01:22:49.986Z,1023.45
2016-10-05T01:23:49.955Z,1023.48
2016-10-05T01:24:49.929Z,1023.47
2016-10-05T01:25:49.898Z,1023.46
2016-10-05T01:26:49.873Z,1023.5
2016-10-05T01:27:49.844Z,1023.51
2016-10-05T01:28:49.813Z,1023.48
2016-10-05T01:29:49.787Z,1023.52
2016-10-05T01:30:49.758Z,1023.52
2016-10-05T01:31:49.729Z,1023.5
2016-10-05T01:32:49.699Z,1023.5
2016-10-05T01:33:49.672Z,1023.52
2016-10-05T01:34:49.644Z,1023.49
2016-10-05T01:35:49.615Z,1023.45
2016-10-05T01:36:49.587Z,1023.47
2016-10-05T01:37:49.556Z,1023.45
2016-10-05T01:38:49.527Z,1023.46
2016-10-05T01:39:49.499Z,1023.45
2016-10-05T01:40:49.470Z,1023.46
2016-10-05T01:41:49.441Z,1023.41
2016-10-05T01:42:49.413Z,1023.42
2016-10-05T01:43:49.386Z,1023.44
2016-10-05T01:44:49.358Z,1023.43
2016-10-05T01:45:49.327Z,1023.46
2016-10-05T01:46:49.300Z,1023.46
2016-10-05T01:47:49.284Z,1023.46
2016-10-05T01:48:49.241Z,1023.48
2016-10-05T01:49:49.212Z,1023.47
2016-10-05T01:50:49.191Z,1023.53
2016-10-05T01:51:49.157Z,1023.47
2016-10-05T01:52:49.129Z,1023.48
2016-10-05T01:53:49.100Z,1023.42
2016-10-05T01:54:49.069Z,1023.5
2016-10-05T01:55:49.043Z,1023.5
2016-10-05T01:56:49.012Z,1023.47
2016-10-05T01:57:48.982Z,1023.47
2016-10-05T01:58:48.957Z,1023.49
2016-10-05T01:59:48.927Z,1023.48
2016-10-05T02:00:48.898Z,1023.52
2016-10-05T02:01:48.870Z,1023.5
2016-10-05T02:02:48.839Z,1023.53
2016-10-05T02:03:48.809Z,1023.51
2016-10-05T02:04:48.785Z,1023.56
2016-10-05T02:05:48.754Z,1023.57
2016-10-05T02:06:48.738Z,1023.59
2016-10-05T02:07:48.693Z,1023.63
2016-10-05T02:08:48.667Z,1023.68
2016-10-05T02:09:48.640Z,1023.71
2016-10-05T02:10:48.607Z,1023.68
2016-10-05T02:11:48.580Z,1023.64
2016-10-05T02:12:48.552Z,1023.64
2016-10-05T02:13:48.521Z,1023.61
2016-10-05T02:14:48.494Z,1023.6
2016-10-05T02:15:48.465Z,1023.6
2016-10-05T02:16:48.437Z,1023.59
2016-10-05T02:17:48.405Z,1023.57
2016-10-05T02:18:48.378Z,1023.57
2016-10-05T02:19:48.347Z,1023.57
2016-10-05T02:20:48.321Z,1023.55
2016-10-05T02:21:48.341Z,1023.51
2016-10-05T02:22:48.261Z,1023.44
2016-10-05T02:23:48.234Z,1023.42
2016-10-05T02:24:48.205Z,1023.41
2016-10-05T02:25:48.173Z,1023.45
2016-10-05T02:26:48.147Z,1023.48
2016-10-05T02:27:48.118Z,1023.48
2016-10-05T02:28:48.090Z,1023.48
2016-10-05T02:29:48.060Z,1023.49
2016-10-05T02:30:48.031Z,1023.52
2016-10-05T02:31:48.000Z,1023.5
2016-10-05T02:32:47.972Z,1023.48
2016-10-05T02:33:47.941Z,1023.5
2016-10-05T02:34:47.913Z,1023.49
2016-10-05T02:35:47.884Z,1023.47
2016-10-05T02:36:47.854Z,1023.48
2016-10-05T02:37:47.827Z,1023.48
2016-10-05T02:38:47.797Z,1023.49
2016-10-05T02:39:47.770Z,1023.44
2016-10-05T02:40:47.740Z,1023.43
2016-10-05T02:41:47.710Z,1023.41
2016-10-05T02:42:47.681Z,1023.39
2016-10-05T02:43:47.650Z,1023.42
2016-10-05T02:44:47.624Z,1023.41
2016-10-05T02:45:47.592Z,1023.39
2016-10-05T02:46:47.566Z,1023.36
2016-10-05T02:47:47.534Z,1023.37
2016-10-05T02:48:47.507Z,1023.35
2016-10-05T02:49:47.479Z,1023.33
2016-10-05T02:50:47.449Z,1023.33
2016-10-05T02:51:47.417Z,1023.35
2016-10-05T02:52:47.388Z,1023.34
2016-10-05T02:53:47.361Z,1023.37
2016-10-05T02:54:47.329Z,1023.34
2016-10-05T02:55:47.380Z,1023.32
2016-10-05T02:56:47.271Z,1023.29
2016-10-05T02:57:47.244Z,1023.28
2016-10-05T02:58:47.214Z,1023.25
2016-10-05T02:59:47.186Z,1023.26
2016-10-05T03:00:47.157Z,1023.25
2016-10-05T03:01:47.126Z,1023.26
2016-10-05T03:02:47.097Z,1023.19
2016-10-05T03:03:47.066Z,1023.22
2016-10-05T03:04:47.038Z,1023.19
2016-10-05T03:05:47.009Z,1023.23
2016-10-05T03:06:46.981Z,1023.25
2016-10-05T03:07:46.949Z,1023.24
2016-10-05T03:08:46.920Z,1023.25
2016-10-05T03:09:46.889Z,1023.24
2016-10-05T03:10:46.861Z,1023.22
2016-10-05T03:11:46.831Z,1023.26
2016-10-05T03:12:46.804Z,1023.26
2016-10-05T03:13:46.774Z,1023.24
2016-10-05T03:14:46.742Z,1023.27
2016-10-05T03:15:46.714Z,1023.22
2016-10-05T03:16:46.685Z,1023.22
2016-10-05T03:17:46.657Z,1023.23
2016-10-05T03:18:46.626Z,1023.21
2016-10-05T03:19:46.596Z,1023.23
2016-10-05T03:20:46.567Z,1023.21
2016-10-05T03:21:46.539Z,1023.15
2016-10-05T03:22:46.510Z,1023.16
2016-10-05T03:23:46.481Z,1023.2
2016-10-05T03:24:46.449Z,1023.2
2016-10-05T03:25:46.422Z,1023.18
2016-10-05T03:26:46.396Z,1023.21
2016-10-05T03:27:46.362Z,1023.2
2016-10-05T03:28:46.332Z,1023.19
2016-10-05T03:29:46.305Z,1023.15
2016-10-05T03:30:46.274Z,1023.17
2016-10-05T03:31:46.252Z,1023.19
2016-10-05T03:32:46.217Z,1023.16
2016-10-05T03:33:46.188Z,1023.18
2016-10-05T03:34:46.157Z,1023.18
2016-10-05T03:35:46.126Z,1023.2
2016-10-05T03:36:46.098Z,1023.11
2016-10-05T03:37:46.067Z,1023.15
2016-10-05T03:38:46.040Z,1023.13
2016-10-05T03:39:46.010Z,1023.13
2016-10-05T03:40:45.979Z,1023.16
2016-10-05T03:41:45.951Z,1023.16
2016-10-05T03:42:45.921Z,1023.18
2016-10-05T03:43:45.890Z,1023.17
2016-10-05T03:44:45.862Z,1023.17
2016-10-05T03:45:45.830Z,1023.19
2016-10-05T03:46:45.801Z,1023.17
2016-10-05T03:47:45.972Z,1023.16
2016-10-05T03:48:45.745Z,1023.22
2016-10-05T03:49:45.714Z,1023.2
2016-10-05T03:50:45.691Z,1023.16
2016-10-05T03:51:45.656Z,1023.14
2016-10-05T03:52:45.624Z,1023.18
2016-10-05T03:53:45.594Z,1023.22
2016-10-05T03:54:45.564Z,1023.22
2016-10-05T03:55:45.535Z,1023.24
2016-10-05T03:56:45.505Z,1023.19
2016-10-05T03:57:45.475Z,1023.19
2016-10-05T03:58:45.448Z,1023.21
2016-10-05T03:59:45.419Z,1023.22
2016-10-05T04:00:45.386Z,1023.19
2016-10-05T04:01:45.357Z,1023.2
2016-10-05T04:02:45.328Z,1023.13
2016-10-05T04:03:45.300Z,1023.17
2016-10-05T04:04:45.267Z,1023.18
2016-10-05T04:05:45.239Z,1023.15
2016-10-05T04:06:45.211Z,1023.14
2016-10-05T04:07:45.181Z,1023.13
2016-10-05T04:08:45.152Z,1023.12
2016-10-05T04:09:45.121Z,1023.11
2016-10-05T04:10:45.091Z,1023.08
2016-10-05T04:11:45.062Z,1023.1
2016-10-05T04:12:45.031Z,1023.09
2016-10-05T04:13:45.003Z,1023.08
2016-10-05T04:14:44.973Z,1023.1
2016-10-05T04:15:44.941Z,1023.12
2016-10-05T04:16:44.912Z,1023.14
2016-10-05T04:17:44.884Z,1023.12
2016-10-05T04:18:44.854Z,1023.15
2016-10-05T04:19:44.822Z,1023.15
2016-10-05T04:20:44.793Z,1023.17
2016-10-05T04:21:44.765Z,1023.17
2016-10-05T04:22:44.733Z,1023.17
2016-10-05T04:23:44.704Z,1023.2
2016-10-05T04:24:44.675Z,1023.21
2016-10-05T04:25:44.645Z,1023.24
2016-10-05T04:26:44.616Z,1023.27
2016-10-05T04:27:44.584Z,1023.27
2016-10-05T04:28:44.558Z,1023.3
2016-10-05T04:29:44.525Z,1023.25
2016-10-05T04:30:44.496Z,1023.28
2016-10-05T04:31:44.464Z,1023.33
2016-10-05T04:32:44.434Z,1023.26
2016-10-05T04:33:44.405Z,1023.23
2016-10-05T04:34:44.377Z,1023.25
2016-10-05T04:35:44.347Z,1023.24
2016-10-05T04:36:44.315Z,1023.27
2016-10-05T04:37:44.284Z,1023.27
2016-10-05T04:38:44.257Z,1023.35
2016-10-05T04:39:44.225Z,1023.36
2016-10-05T04:40:44.199Z,1023.39
2016-10-05T04:41:44.165Z,1023.39
2016-10-05T04:42:44.135Z,1023.35
2016-10-05T04:43:44.107Z,1023.32
2016-10-05T04:44:44.074Z,1023.34
2016-10-05T04:45:44.044Z,1023.39
2016-10-05T04:46:44.016Z,1023.41
2016-10-05T04:47:43.986Z,1023.41
2016-10-05T04:48:43.954Z,1023.4
2016-10-05T04:49:43.924Z,1023.41
2016-10-05T04:50:43.896Z,1023.41
2016-10-05T04:51:43.866Z,1023.43
2016-10-05T04:52:43.834Z,1023.43
2016-10-05T04:53:43.803Z,1023.47
2016-10-05T04:54:43.776Z,1023.46
2016-10-05T04:55:43.743Z,1023.47
2016-10-05T04:56:43.715Z,1023.46
2016-10-05T04:57:43.683Z,1023.44
2016-10-05T04:58:43.656Z,1023.46
2016-10-05T04:59:43.623Z,1023.48
2016-10-05T05:00:43.596Z,1023.52
2016-10-05T05:01:43.564Z,1023.55
2016-10-05T05:02:43.534Z,1023.51
2016-10-05T05:03:43.503Z,1023.51
2016-10-05T05:04:43.473Z,1023.55
2016-10-05T05:05:43.444Z,1023.53
2016-10-05T05:06:43.414Z,1023.58
2016-10-05T05:07:43.385Z,1023.57
2016-10-05T05:08:43.355Z,1023.65
2016-10-05T05:09:43.322Z,1023.7
2016-10-05T05:10:43.294Z,1023.65
2016-10-05T05:11:43.264Z,1023.6
2016-10-05T05:12:43.235Z,1023.62
2016-10-05T05:13:43.201Z,1023.59
2016-10-05T05:14:43.174Z,1023.57
2016-10-05T05:15:43.145Z,1023.56
2016-10-05T05:16:43.112Z,1023.57
2016-10-05T05:17:43.081Z,1023.59
2016-10-05T05:18:43.052Z,1023.55
2016-10-05T05:19:43.021Z,1023.54
2016-10-05T05:20:42.990Z,1023.59
2016-10-05T05:21:42.961Z,1023.56
2016-10-05T05:22:42.951Z,1023.58
2016-10-05T05:23:42.901Z,1023.58
2016-10-05T05:24:42.870Z,1023.55
2016-10-05T05:25:42.840Z,1023.53
2016-10-05T05:26:43.229Z,1023.52
2016-10-05T05:27:42.782Z,1023.51
2016-10-05T05:28:42.752Z,1023.49
2016-10-05T05:29:42.722Z,1023.5
2016-10-05T05:30:42.692Z,1023.46
2016-10-05T05:31:42.659Z,1023.53
2016-10-05T05:32:42.631Z,1023.5
2016-10-05T05:33:42.600Z,1023.47
2016-10-05T05:34:42.573Z,1023.49
2016-10-05T05:35:42.539Z,1023.5
2016-10-05T05:36:42.511Z,1023.48
2016-10-05T05:37:42.481Z,1023.47
2016-10-05T05:38:42.451Z,1023.51
2016-10-05T05:39:42.434Z,1023.53
2016-10-05T05:40:42.391Z,1023.55
2016-10-05T05:41:42.361Z,1023.64
2016-10-05T05:42:42.328Z,1023.64
2016-10-05T05:43:42.301Z,1023.6
2016-10-05T05:44:42.268Z,1023.62
2016-10-05T05:45:42.241Z,1023.68
2016-10-05T05:46:42.208Z,1023.67
2016-10-05T05:47:42.180Z,1023.64
2016-10-05T05:48:42.148Z,1023.7
2016-10-05T05:49:42.120Z,1023.71
2016-10-05T05:50:42.087Z,1023.71
2016-10-05T05:51:42.058Z,1023.72
2016-10-05T05:52:42.028Z,1023.74
2016-10-05T05:53:41.999Z,1023.72
2016-10-05T05:54:41.966Z,1023.74
2016-10-05T05:55:41.939Z,1023.76
2016-10-05T05:56:41.910Z,1023.75
2016-10-05T05:57:41.877Z,1023.73
2016-10-05T05:58:41.846Z,1023.72
2016-10-05T05:59:41.816Z,1023.75
2016-10-05T06:00:41.792Z,1023.77
2016-10-05T06:01:41.758Z,1023.74
2016-10-05T06:02:41.729Z,1023.75
2016-10-05T06:03:41.699Z,1023.77
2016-10-05T06:04:41.667Z,1023.77
2016-10-05T06:05:41.636Z,1023.8
2016-10-05T06:06:41.609Z,1023.81
2016-10-05T06:07:41.575Z,1023.82
2016-10-05T06:08:41.546Z,1023.85
2016-10-05T06:09:41.516Z,1023.85
2016-10-05T06:10:41.488Z,1023.86
2016-10-05T06:11:41.456Z,1023.85
2016-10-05T06:12:41.428Z,1023.84
2016-10-05T06:13:41.398Z,1023.86
2016-10-05T06:14:41.366Z,1023.85
2016-10-05T06:15:41.335Z,1023.82
2016-10-05T06:16:41.306Z,1023.81
2016-10-05T06:17:41.278Z,1023.78
2016-10-05T06:18:41.246Z,1023.79
2016-10-05T06:19:41.217Z,1023.77
2016-10-05T06:20:41.186Z,1023.78
2016-10-05T06:21:41.156Z,1023.79
2016-10-05T06:22:41.129Z,1023.8
2016-10-05T06:23:41.098Z,1023.74
2016-10-05T06:24:41.067Z,1023.78
2016-10-05T06:25:41.037Z,1023.76
2016-10-05T06:26:41.006Z,1023.81
2016-10-05T06:27:40.977Z,1023.81
2016-10-05T06:28:40.949Z,1023.83
2016-10-05T06:29:40.918Z,1023.8
2016-10-05T06:30:40.887Z,1023.82
2016-10-05T06:31:40.857Z,1023.84
2016-10-05T06:32:40.828Z,1023.82
2016-10-05T06:33:40.799Z,1023.79
2016-10-05T06:34:40.768Z,1023.76
2016-10-05T06:35:40.739Z,1023.85
2016-10-05T06:36:40.712Z,1023.83
2016-10-05T06:37:40.680Z,1023.83
2016-10-05T06:38:40.652Z,1023.88
2016-10-05T06:39:40.622Z,1023.92
2016-10-05T06:40:40.593Z,1023.93
2016-10-05T06:41:40.562Z,1023.89
2016-10-05T06:42:40.531Z,1023.92
2016-10-05T06:43:40.508Z,1023.89
2016-10-05T06:44:40.472Z,1023.89
2016-10-05T06:45:40.443Z,1023.87
2016-10-05T06:46:40.414Z,1023.86
2016-10-05T06:47:40.384Z,1023.87
2016-10-05T06:48:40.354Z,1023.88
2016-10-05T06:49:40.324Z,1023.84
2016-10-05T06:50:40.295Z,1023.8
2016-10-05T06:51:40.264Z,1023.89
2016-10-05T06:52:40.238Z,1023.91
2016-10-05T06:53:40.205Z,1023.86
2016-10-05T06:54:40.176Z,1023.89
2016-10-05T06:55:40.143Z,1023.87
2016-10-05T06:56:40.115Z,1023.89
2016-10-05T06:57:40.085Z,1023.9
2016-10-05T06:58:40.059Z,1023.85
2016-10-05T06:59:40.026Z,1023.9
2016-10-05T07:00:39.997Z,1023.86
2016-10-05T07:01:39.967Z,1023.94
2016-10-05T07:02:39.940Z,1023.95
2016-10-05T07:03:39.908Z,1024
2016-10-05T07:04:39.879Z,1024.01
2016-10-05T07:05:39.849Z,1023.95
2016-10-05T07:06:39.822Z,1024
2016-10-05T07:07:39.790Z,1024.05
2016-10-05T07:08:39.763Z,1024.02
2016-10-05T07:09:39.734Z,1024.03
2016-10-05T07:10:39.701Z,1024.07
2016-10-05T07:11:39.673Z,1024.07
2016-10-05T07:12:39.646Z,1024.03
2016-10-05T07:13:39.619Z,1024.1
2016-10-05T07:14:39.587Z,1024.14
2016-10-05T07:15:39.555Z,1024.04
2016-10-05T07:16:39.533Z,1024.05
2016-10-05T07:17:39.499Z,1024.05
2016-10-05T07:18:39.470Z,1024.04
2016-10-05T07:19:39.439Z,1024.07
2016-10-05T07:20:39.409Z,1024.09
2016-10-05T07:21:39.381Z,1024.06
2016-10-05T07:22:39.351Z,1024.04
2016-10-05T07:23:39.324Z,1024.01
2016-10-05T07:24:39.343Z,1024.04
2016-10-05T07:25:39.266Z,1024.07
2016-10-05T07:26:39.237Z,1024.05
2016-10-05T07:27:39.207Z,1024.03
2016-10-05T07:28:39.178Z,1024.05
2016-10-05T07:29:39.147Z,1024.01
2016-10-05T07:30:39.174Z,1023.98
2016-10-05T07:31:39.091Z,1024.02
2016-10-05T07:32:39.059Z,1024.03
2016-10-05T07:33:39.030Z,1024.03
2016-10-05T07:34:39.002Z,1024.07
2016-10-05T07:35:38.975Z,1024.08
2016-10-05T07:36:38.947Z,1024.11
2016-10-05T07:37:39.165Z,1024.04
2016-10-05T07:38:38.886Z,1024.05
2016-10-05T07:39:38.858Z,1024.03
2016-10-05T07:40:38.829Z,1023.99
2016-10-05T07:41:38.801Z,1024.06
2016-10-05T07:42:38.771Z,1024.02
2016-10-05T07:43:38.741Z,1024.01
2016-10-05T07:44:38.713Z,1024.06
2016-10-05T07:45:38.684Z,1024.06
2016-10-05T07:46:38.656Z,1024.04
2016-10-05T07:47:38.627Z,1024.06
2016-10-05T07:48:38.613Z,1024.04
2016-10-05T07:49:38.569Z,1023.99
2016-10-05T07:50:38.539Z,1024.05
2016-10-05T07:51:38.513Z,1023.98
2016-10-05T07:52:38.482Z,1023.95
2016-10-05T07:53:38.454Z,1024
2016-10-05T07:54:38.425Z,1024.01
2016-10-05T07:55:38.396Z,1023.97
2016-10-05T07:56:38.368Z,1023.99
2016-10-05T07:57:38.340Z,1023.96
2016-10-05T07:58:38.312Z,1023.96
2016-10-05T07:59:38.282Z,1024.07
2016-10-05T08:00:38.257Z,1024
2016-10-05T08:01:38.226Z,1024.01
2016-10-05T08:02:38.199Z,1024.05
2016-10-05T08:03:38.170Z,1024
2016-10-05T08:04:38.143Z,1024.03
2016-10-05T08:05:38.113Z,1024
2016-10-05T08:06:38.083Z,1024.03
2016-10-05T08:07:38.055Z,1024.02
2016-10-05T08:08:38.028Z,1024.04
2016-10-05T08:09:37.999Z,1024.01
2016-10-05T08:10:37.974Z,1024.01
2016-10-05T08:11:37.945Z,1024
2016-10-05T08:12:37.915Z,1023.94
2016-10-05T08:13:37.887Z,1024
2016-10-05T08:14:37.861Z,1024.02
2016-10-05T08:15:37.833Z,1023.88
2016-10-05T08:16:37.817Z,1023.99
2016-10-05T08:17:37.775Z,1024.01
2016-10-05T08:18:37.747Z,1023.95
2016-10-05T08:19:37.718Z,1024.03
2016-10-05T08:20:37.691Z,1023.99
2016-10-05T08:21:37.663Z,1024.03
2016-10-05T08:22:37.637Z,1023.99
2016-10-05T08:23:37.608Z,1024.02
2016-10-05T08:24:37.581Z,1024.01
2016-10-05T08:25:37.551Z,1024.01
2016-10-05T08:26:37.523Z,1024.02
2016-10-05T08:27:37.495Z,1024.02
2016-10-05T08:28:37.469Z,1024.02
2016-10-05T08:29:37.439Z,1024.05
2016-10-05T08:30:37.412Z,1023.98
2016-10-05T08:31:37.386Z,1024.07
2016-10-05T08:32:37.719Z,1024.01
2016-10-05T08:33:37.330Z,1023.92
2016-10-05T08:34:37.301Z,1023.97
2016-10-05T08:35:37.327Z,1024.02
2016-10-05T08:36:37.317Z,1024.02
2016-10-05T08:37:37.237Z,1023.98
2016-10-05T08:38:37.291Z,1023.93
2016-10-05T08:39:37.165Z,1024.03
2016-10-05T08:40:37.138Z,1024.03
2016-10-05T08:41:37.110Z,1024.09
2016-10-05T08:42:37.082Z,1023.99
2016-10-05T08:43:37.052Z,1024.12
2016-10-05T08:44:37.027Z,1024.1
2016-10-05T08:45:36.997Z,1024.11
2016-10-05T08:46:36.971Z,1024.01
2016-10-05T08:47:36.943Z,1024.07
2016-10-05T08:48:36.919Z,1024.1
2016-10-05T08:49:36.888Z,1024.04
2016-10-05T08:50:36.864Z,1024.11
2016-10-05T08:51:36.836Z,1024.11
2016-10-05T08:52:36.808Z,1024.22
2016-10-05T08:53:36.885Z,1024.16
2016-10-05T08:54:36.813Z,1024.09
2016-10-05T08:55:36.825Z,1024.03
2016-10-05T08:56:36.747Z,1024.17
2016-10-05T08:57:36.704Z,1024.13
2016-10-05T08:58:36.648Z,1024.11
2016-10-05T08:59:36.693Z,1024.14
2016-10-05T09:00:36.621Z,1024.18
2016-10-05T09:01:36.626Z,1024.21
2016-10-05T09:02:36.560Z,1024.21
2016-10-05T09:03:36.509Z,1024.22
2016-10-05T09:04:36.612Z,1024.16
2016-10-05T09:05:36.457Z,1024.18
2016-10-05T09:06:36.430Z,1024.16
2016-10-05T09:07:36.400Z,1024.22
2016-10-05T09:08:36.375Z,1024.17
2016-10-05T09:09:36.348Z,1024.09
2016-10-05T09:10:36.321Z,1024.04
2016-10-05T09:11:36.295Z,1024.15
2016-10-05T09:12:36.268Z,1024.15
2016-10-05T09:13:36.240Z,1024.08
2016-10-05T09:14:36.213Z,1024.16
2016-10-05T09:15:36.188Z,1024.19
2016-10-05T09:16:36.161Z,1024.25
2016-10-05T09:17:36.199Z,1024.1
2016-10-05T09:18:36.108Z,1024.13
2016-10-05T09:19:36.083Z,1024.23
2016-10-05T09:20:36.054Z,1024.21
2016-10-05T09:21:36.029Z,1024.18
2016-10-05T09:22:36.001Z,1024.17
2016-10-05T09:23:35.974Z,1024.17
2016-10-05T09:24:35.949Z,1024.13
2016-10-05T09:25:35.920Z,1024.16
2016-10-05T09:26:35.894Z,1024.17
2016-10-05T09:27:35.867Z,1024.12
2016-10-05T09:28:35.840Z,1024.19
2016-10-05T09:29:35.816Z,1024.22
2016-10-05T09:30:35.789Z,1024.17
2016-10-05T09:31:35.764Z,1024.15
2016-10-05T09:32:35.735Z,1024.1
2016-10-05T09:33:35.708Z,1024.1
2016-10-05T09:34:35.685Z,1024.13
2016-10-05T09:35:35.657Z,1024.14
2016-10-05T09:36:35.637Z,1024.09
2016-10-05T09:37:35.610Z,1024.19
2016-10-05T09:38:35.579Z,1024.16
2016-10-05T09:39:35.556Z,1024.08
2016-10-05T09:40:35.525Z,1024.06
2016-10-05T09:41:35.713Z,1024.05
2016-10-05T09:42:35.476Z,1023.97
2016-10-05T09:43:35.450Z,1024
2016-10-05T09:44:35.423Z,1024.08
2016-10-05T09:45:35.398Z,1023.96
2016-10-05T09:46:35.372Z,1024.07
2016-10-05T09:47:35.344Z,1023.98
2016-10-05T09:48:35.318Z,1024.02
2016-10-05T09:49:35.291Z,1023.85
2016-10-05T09:50:35.266Z,1023.94
2016-10-05T09:51:35.241Z,1023.9
2016-10-05T09:52:35.214Z,1023.84
2016-10-05T09:53:35.188Z,1023.94
2016-10-05T09:54:35.161Z,1023.9
2016-10-05T09:55:35.136Z,1023.82
2016-10-05T09:56:35.259Z,1023.82
2016-10-05T09:57:35.086Z,1023.86
2016-10-05T09:58:35.060Z,1023.82
2016-10-05T09:59:35.032Z,1023.83
2016-10-05T10:00:35.006Z,1023.85
2016-10-05T10:01:34.980Z,1023.84
2016-10-05T10:02:34.953Z,1023.82
2016-10-05T10:03:34.928Z,1023.81
2016-10-05T10:04:34.905Z,1023.86
2016-10-05T10:05:34.881Z,1023.9
2016-10-05T10:06:34.850Z,1023.89
2016-10-05T10:07:34.827Z,1023.83
2016-10-05T10:08:34.800Z,1023.74
2016-10-05T10:09:34.776Z,1023.78
2016-10-05T10:10:34.748Z,1023.63
2016-10-05T10:11:34.723Z,1023.66
2016-10-05T10:12:34.697Z,1023.73
2016-10-05T10:13:34.673Z,1023.73
2016-10-05T10:14:34.647Z,1023.71
2016-10-05T10:15:34.620Z,1023.66
2016-10-05T10:16:34.596Z,1023.67
2016-10-05T10:17:34.571Z,1023.64
2016-10-05T10:18:34.546Z,1023.6
2016-10-05T10:19:34.520Z,1023.64
2016-10-05T10:20:34.495Z,1023.56
2016-10-05T10:21:34.469Z,1023.52
2016-10-05T10:22:34.443Z,1023.6
2016-10-05T10:23:34.419Z,1023.47
2016-10-05T10:24:34.393Z,1023.51
2016-10-05T10:25:34.370Z,1023.43
2016-10-05T10:26:34.346Z,1023.54
2016-10-05T10:27:34.318Z,1023.5
2016-10-05T10:28:34.298Z,1023.5
2016-10-05T10:29:34.271Z,1023.41
2016-10-05T10:30:34.247Z,1023.47
2016-10-05T10:31:34.222Z,1023.43
2016-10-05T10:32:34.197Z,1023.4
2016-10-05T10:33:34.173Z,1023.4
2016-10-05T10:34:34.148Z,1023.39
2016-10-05T10:35:34.123Z,1023.32
2016-10-05T10:36:34.101Z,1023.27
2016-10-05T10:37:34.075Z,1023.31
2016-10-05T10:38:34.050Z,1023.22
2016-10-05T10:39:34.029Z,1023.23
2016-10-05T10:40:34.002Z,1023.27
2016-10-05T10:41:33.981Z,1023.27
2016-10-05T10:42:33.955Z,1023.21
2016-10-05T10:43:33.933Z,1023.17
2016-10-05T10:44:33.907Z,1023.17
2016-10-05T10:45:33.884Z,1023.18
2016-10-05T10:46:33.861Z,1023.19
2016-10-05T10:47:33.834Z,1023.12
2016-10-05T10:48:33.813Z,1023.12
2016-10-05T10:49:33.791Z,1023.16
2016-10-05T10:50:33.766Z,1023.18
2016-10-05T10:51:33.743Z,1023.16
2016-10-05T10:52:33.724Z,1023.14
2016-10-05T10:53:33.696Z,1023.04
2016-10-05T10:54:33.674Z,1023.08
2016-10-05T10:55:33.651Z,1023.16
2016-10-05T10:56:33.629Z,1023.11
2016-10-05T10:57:33.608Z,1023.04
2016-10-05T10:58:33.586Z,1023.08
2016-10-05T10:59:33.564Z,1023.04
2016-10-05T11:00:33.538Z,1022.98
2016-10-05T11:01:33.516Z,1022.95
2016-10-05T11:02:33.496Z,1022.93
2016-10-05T11:03:33.471Z,1022.93
2016-10-05T11:04:33.448Z,1022.92
2016-10-05T11:05:33.428Z,1022.87
2016-10-05T11:06:33.403Z,1022.86
2016-10-05T11:07:33.384Z,1022.89
2016-10-05T11:08:33.358Z,1022.95
2016-10-05T11:09:33.338Z,1022.9
2016-10-05T11:10:33.314Z,1022.88
2016-10-05T11:11:33.297Z,1022.97
2016-10-05T11:12:33.271Z,1022.87
2016-10-05T11:13:33.246Z,1022.9
2016-10-05T11:14:33.224Z,1022.86
2016-10-05T11:15:33.206Z,1022.88
2016-10-05T11:16:33.178Z,1022.78
2016-10-05T11:17:33.155Z,1022.83
2016-10-05T11:18:33.187Z,1022.83
2016-10-05T11:19:33.109Z,1022.75
2016-10-05T11:20:33.089Z,1022.77
2016-10-05T11:21:33.064Z,1022.8
2016-10-05T11:22:33.040Z,1022.76
2016-10-05T11:23:33.019Z,1022.76
2016-10-05T11:24:32.995Z,1022.76
2016-10-05T11:25:32.971Z,1022.78
2016-10-05T11:26:32.945Z,1022.79
2016-10-05T11:27:32.925Z,1022.78
2016-10-05T11:28:32.900Z,1022.78
2016-10-05T11:29:32.875Z,1022.75
2016-10-05T11:30:32.854Z,1022.72
2016-10-05T11:31:32.829Z,1022.72
2016-10-05T11:32:32.805Z,1022.7
2016-10-05T11:33:32.783Z,1022.65
2016-10-05T11:34:32.758Z,1022.67
2016-10-05T11:35:32.737Z,1022.64
2016-10-05T11:36:32.711Z,1022.63
2016-10-05T11:37:32.688Z,1022.54
2016-10-05T11:38:32.666Z,1022.57
2016-10-05T11:39:32.641Z,1022.57
2016-10-05T11:40:32.617Z,1022.49
2016-10-05T11:41:32.596Z,1022.47
2016-10-05T11:42:32.572Z,1022.47
2016-10-05T11:43:32.548Z,1022.44
2016-10-05T11:44:32.528Z,1022.42
2016-10-05T11:45:32.505Z,1022.31
2016-10-05T11:46:32.483Z,1022.3
2016-10-05T11:47:32.461Z,1022.4
2016-10-05T11:48:32.437Z,1022.34
2016-10-05T11:49:32.416Z,1022.27
2016-10-05T11:50:32.394Z,1022.23
2016-10-05T11:51:32.372Z,1022.21
2016-10-05T11:52:32.349Z,1022.2
2016-10-05T11:53:32.343Z,1022.17
2016-10-05T11:54:32.305Z,1022.23
2016-10-05T11:55:32.282Z,1022.17
2016-10-05T11:56:32.262Z,1022.14
2016-10-05T11:57:32.240Z,1022.07
2016-10-05T11:58:32.220Z,1022.02
2016-10-05T11:59:32.199Z,1022.03
2016-10-05T12:00:32.176Z,1022.01
2016-10-05T12:01:32.156Z,1021.99
2016-10-05T12:02:32.182Z,1022
2016-10-05T12:03:32.113Z,1021.97
2016-10-05T12:04:32.092Z,1022.02
2016-10-05T12:05:32.072Z,1021.96
2016-10-05T12:06:32.051Z,1021.94
2016-10-05T12:07:32.030Z,1021.91
2016-10-05T12:08:32.009Z,1021.87